Time;durP1;ratioP1;P1;durP2;ratioP2;P2;SDS_P1;SDS_P2;PMS_P1;PMS_P2;Temp;Humidity;BMP_temperature;BMP_pressure;BME280_temperature;BME280_humidity;BME280_pressure;Samples;Min_cycle;Max_cycle;Signal;HPM_P1;HPM_P2
2022/03/20 00:01:02;;;;;;;23.27;6.13;;;;;;;;;;5073198;28;20212;-69
2022/03/20 00:03:30;;;;;;;19.15;5.38;;;;;;;;;;5073290;28;20288;-69
2022/03/20 00:05:58;;;;;;;19.15;5.78;;;;;;;;;;5073088;28;20286;-70
2022/03/20 00:08:26;;;;;;;17.17;4.13;;;;;;;;;;5073160;28;20212;-69
2022/03/20 00:10:55;;;;;;;20.75;5.50;;;;;;;;;;5073083;28;20239;-69
2022/03/20 00:13:23;;;;;;;16.48;3.67;;;;;;;;;;5073287;28;20212;-69
2022/03/20 00:15:51;;;;;;;16.45;4.20;;;;;;;;;;5066178;28;20308;-72
2022/03/20 00:18:21;;;;;;;19.90;4.95;;;;;;;;;;5073223;28;20208;-69
2022/03/20 00:20:49;;;;;;;20.95;4.60;;;;;;;;;;5072939;28;20662;-69
2022/03/20 00:23:19;;;;;;;17.23;4.20;;;;;;;;;;5072834;28;20677;-69
2022/03/20 00:25:47;;;;;;;28.67;5.88;;;;;;;;;;5074020;28;20251;-72
2022/03/20 00:28:15;;;;;;;27.27;5.30;;;;;;;;;;5073786;28;20704;-72
2022/03/20 00:30:43;;;;;;;17.30;4.40;;;;;;;;;;5075598;28;20205;-69
2022/03/20 00:33:10;;;;;;;17.90;4.57;;;;;;;;;;5075694;28;20319;-71
2022/03/20 00:35:39;;;;;;;18.73;4.60;;;;;;;;;;5075738;28;20212;-72
2022/03/20 00:38:07;;;;;;;22.63;5.07;;;;;;;;;;5074563;28;20283;-69
2022/03/20 00:40:36;;;;;;;18.77;4.15;;;;;;;;;;5072796;28;20590;-70
2022/03/20 00:43:03;;;;;;;18.95;5.47;;;;;;;;;;5072533;28;20749;-69
2022/03/20 00:45:31;;;;;;;15.45;4.32;;;;;;;;;;5072792;28;20710;-70
2022/03/20 00:47:58;;;;;;;21.75;5.65;;;;;;;;;;5072673;28;20201;-67
2022/03/20 00:50:26;;;;;;;26.08;5.22;;;;;;;;;;5072612;28;20216;-70
2022/03/20 00:52:54;;;;;;;17.48;4.78;;;;;;;;;;5075377;28;20235;-70
2022/03/20 00:55:22;;;;;;;22.42;5.35;;;;;;;;;;5074400;28;20204;-72
2022/03/20 00:57:51;;;;;;;17.42;5.25;;;;;;;;;;5075490;28;20215;-69
2022/03/20 01:00:18;;;;;;;13.50;4.00;;;;;;;;;;5068684;28;20204;-68
2022/03/20 01:02:46;;;;;;;19.27;4.60;;;;;;;;;;5073407;28;20295;-70
2022/03/20 01:05:14;;;;;;;29.23;6.68;;;;;;;;;;5071926;28;20248;-67
2022/03/20 01:07:42;;;;;;;21.95;6.35;;;;;;;;;;5072082;28;20213;-68
2022/03/20 01:10:12;;;;;;;19.10;5.25;;;;;;;;;;5072056;28;20236;-67
2022/03/20 01:12:41;;;;;;;20.52;4.60;;;;;;;;;;5072049;28;20606;-69
2022/03/20 01:15:10;;;;;;;22.25;5.75;;;;;;;;;;5071566;28;20692;-67
2022/03/20 01:17:38;;;;;;;24.77;5.30;;;;;;;;;;5071911;28;20208;-69
2022/03/20 01:20:08;;;;;;;21.75;4.78;;;;;;;;;;5071723;28;20208;-67
2022/03/20 01:22:35;;;;;;;28.35;6.57;;;;;;;;;;5071650;28;20216;-70
2022/03/20 01:25:04;;;;;;;28.58;8.23;;;;;;;;;;5064861;28;20224;-69
2022/03/20 01:27:33;;;;;;;22.15;6.18;;;;;;;;;;5071576;28;20672;-69
2022/03/20 01:30:00;;;;;;;20.67;6.45;;;;;;;;;;5071601;28;20212;-67
2022/03/20 01:32:28;;;;;;;25.95;6.78;;;;;;;;;;5071349;28;20243;-67
2022/03/20 01:34:56;;;;;;;26.45;6.88;;;;;;;;;;5071363;28;20208;-67
2022/03/20 01:37:23;;;;;;;28.90;9.25;;;;;;;;;;5071057;28;20707;-67
2022/03/20 01:39:52;;;;;;;23.92;6.30;;;;;;;;;;5071286;28;20299;-68
2022/03/20 01:42:19;;;;;;;24.63;6.47;;;;;;;;;;5071242;28;20212;-67
2022/03/20 01:44:48;;;;;;;33.47;6.72;;;;;;;;;;5071525;28;20273;-67
2022/03/20 01:47:16;;;;;;;20.73;5.95;;;;;;;;;;5064291;28;20688;-67
2022/03/20 01:49:44;;;;;;;16.67;2.85;;;;;;;;;;5071024;28;20209;-67
2022/03/20 01:52:11;;;;;;;23.30;6.30;;;;;;;;;;5071053;28;20239;-67
2022/03/20 01:54:39;;;;;;;27.00;6.63;;;;;;;;;;5070978;28;20200;-67
2022/03/20 01:57:07;;;;;;;24.95;7.18;;;;;;;;;;5070964;28;20205;-68
2022/03/20 01:59:34;;;;;;;19.30;5.20;;;;;;;;;;5071048;28;20216;-67
2022/03/20 02:02:04;;;;;;;25.58;5.63;;;;;;;;;;5070879;28;20258;-67
2022/03/20 02:04:32;;;;;;;25.15;5.65;;;;;;;;;;5070977;28;20204;-67
2022/03/20 02:07:00;;;;;;;25.08;6.03;;;;;;;;;;5070908;28;20232;-69
2022/03/20 02:09:28;;;;;;;25.83;6.50;;;;;;;;;;5070858;28;20535;-67
2022/03/20 02:11:56;;;;;;;17.15;4.60;;;;;;;;;;5070724;28;20619;-67
2022/03/20 02:14:23;;;;;;;20.95;4.80;;;;;;;;;;5070794;28;20204;-67
2022/03/20 02:16:51;;;;;;;18.35;5.55;;;;;;;;;;5070987;28;20208;-67
2022/03/20 02:19:20;;;;;;;28.70;5.47;;;;;;;;;;5070793;28;20205;-67
2022/03/20 02:21:50;;;;;;;16.23;3.92;;;;;;;;;;5070693;28;20580;-67
2022/03/20 02:24:32;;;;;;;24.75;3.70;;;;;;;;;;5070619;28;20627;-67
2022/03/20 02:27:06;;;;;;;18.70;4.38;;;;;;;;;;5070847;28;20262;-68
2022/03/20 02:29:34;;;;;;;17.33;5.20;;;;;;;;;;5070739;28;20227;-68
2022/03/20 02:32:01;;;;;;;19.58;3.63;;;;;;;;;;5070612;28;20232;-67
2022/03/20 02:34:30;;;;;;;20.90;5.13;;;;;;;;;;5070766;28;20593;-67
2022/03/20 02:37:00;;;;;;;16.58;4.57;;;;;;;;;;5070556;28;20208;-67
2022/03/20 02:39:29;;;;;;;16.77;4.50;;;;;;;;;;5070543;28;20584;-67
2022/03/20 02:41:57;;;;;;;16.58;3.80;;;;;;;;;;5070887;28;20646;-68
2022/03/20 02:44:39;;;;;;;17.08;3.50;;;;;;;;;;5070527;28;20215;-68
2022/03/20 02:47:07;;;;;;;19.13;5.60;;;;;;;;;;5063770;28;20204;-68
2022/03/20 02:49:37;;;;;;;19.65;5.78;;;;;;;;;;5070481;28;20287;-68
2022/03/20 02:52:06;;;;;;;26.15;7.43;;;;;;;;;;5074154;28;20327;-67
2022/03/20 02:54:34;;;;;;;16.83;3.47;;;;;;;;;;5074775;28;20200;-69
2022/03/20 02:57:08;;;;;;;21.38;6.68;;;;;;;;;;5074148;28;20215;-69
2022/03/20 02:59:35;;;;;;;22.83;4.78;;;;;;;;;;5074727;28;20207;-69
2022/03/20 03:02:03;;;;;;;24.60;5.60;;;;;;;;;;5074530;28;20273;-68
2022/03/20 03:04:30;;;;;;;17.35;3.63;;;;;;;;;;5074400;28;20200;-68
2022/03/20 03:07:02;;;;;;;26.90;6.28;;;;;;;;;;5074202;28;20706;-68
2022/03/20 03:12:17;;;;;;;30.48;7.72;;;;;;;;;;5074221;28;20313;-69
2022/03/20 03:17:29;;;;;;;20.00;4.47;;;;;;;;;;5078930;28;20227;-69
2022/03/20 03:19:57;;;;;;;20.08;5.90;;;;;;;;;;5078443;28;20287;-70
2022/03/20 03:22:26;;;;;;;20.15;5.38;;;;;;;;;;5079103;28;20212;-69
2022/03/20 03:24:55;;;;;;;21.13;6.25;;;;;;;;;;5078967;28;20205;-69
2022/03/20 03:27:24;;;;;;;23.65;5.55;;;;;;;;;;5078865;28;20749;-68
2022/03/20 03:29:52;;;;;;;25.52;8.32;;;;;;;;;;5079109;28;20212;-69
2022/03/20 03:32:19;;;;;;;22.00;5.97;;;;;;;;;;5078912;28;20224;-74
2022/03/20 03:37:32;;;;;;;24.65;7.35;;;;;;;;;;5073165;28;20285;-69
2022/03/20 03:40:02;;;;;;;23.58;6.75;;;;;;;;;;5079501;28;20254;-68
2022/03/20 03:42:30;;;;;;;22.15;6.25;;;;;;;;;;5079349;28;20208;-68
2022/03/20 03:44:58;;;;;;;35.15;7.60;;;;;;;;;;5076959;28;20633;-68
2022/03/20 03:47:26;;;;;;;27.10;8.00;;;;;;;;;;5074837;28;20331;-68
2022/03/20 03:49:53;;;;;;;20.33;4.22;;;;;;;;;;5074060;28;20212;-69
2022/03/20 03:52:21;;;;;;;21.85;4.60;;;;;;;;;;5073510;28;20236;-69
2022/03/20 03:54:49;;;;;;;18.58;4.78;;;;;;;;;;5073832;28;20208;-68
2022/03/20 03:57:20;;;;;;;18.83;5.35;;;;;;;;;;5073358;28;20303;-70
2022/03/20 03:59:49;;;;;;;23.90;6.55;;;;;;;;;;5073720;28;20739;-69
2022/03/20 04:02:16;;;;;;;17.02;4.00;;;;;;;;;;5066755;28;20217;-68
2022/03/20 04:04:45;;;;;;;14.35;3.45;;;;;;;;;;5073164;28;20300;-68
2022/03/20 04:07:16;;;;;;;26.27;4.82;;;;;;;;;;5075933;28;20215;-71
2022/03/20 04:09:44;;;;;;;24.77;4.38;;;;;;;;;;5076249;28;20211;-69
2022/03/20 04:12:13;;;;;;;18.25;4.57;;;;;;;;;;5077468;28;20275;-69
2022/03/20 04:14:42;;;;;;;29.75;6.35;;;;;;;;;;5077697;28;20220;-71
2022/03/20 04:17:10;;;;;;;21.63;4.97;;;;;;;;;;5075570;28;20216;-68
2022/03/20 04:19:38;;;;;;;19.38;4.75;;;;;;;;;;5077584;28;20685;-73
2022/03/20 04:22:06;;;;;;;21.85;5.15;;;;;;;;;;5078355;28;20215;-69
2022/03/20 04:24:36;;;;;;;23.65;4.10;;;;;;;;;;5078377;28;20215;-69
2022/03/20 04:27:04;;;;;;;20.33;5.47;;;;;;;;;;5070696;28;20209;-68
2022/03/20 04:29:33;;;;;;;22.38;4.78;;;;;;;;;;5074836;28;20283;-69
2022/03/20 04:32:01;;;;;;;21.15;6.13;;;;;;;;;;5073135;28;20558;-68
2022/03/20 04:34:30;;;;;;;17.92;4.85;;;;;;;;;;5073038;28;20729;-68
2022/03/20 04:36:57;;;;;;;20.77;4.78;;;;;;;;;;5073073;28;20209;-69
2022/03/20 04:39:25;;;;;;;23.55;5.63;;;;;;;;;;5072670;28;20586;-68
2022/03/20 04:41:53;;;;;;;21.50;6.15;;;;;;;;;;5072892;28;20220;-69
2022/03/20 04:44:22;;;;;;;18.50;4.82;;;;;;;;;;5072552;28;20299;-69
2022/03/20 04:46:49;;;;;;;20.23;6.40;;;;;;;;;;5072414;28;20670;-68
2022/03/20 05:00:20;;;;;;;23.65;6.47;;;;;;;;;;5072672;28;20295;-68
2022/03/20 05:02:48;;;;;;;23.75;7.07;;;;;;;;;;5072749;28;20212;-70
2022/03/20 05:05:18;;;;;;;32.20;8.95;;;;;;;;;;5071930;28;20710;-69
2022/03/20 05:07:47;;;;;;;32.67;9.48;;;;;;;;;;5072564;28;20575;-69
2022/03/20 05:15:45;;;;;;;30.15;11.45;;;;;;;;;;5071839;28;20261;-69
2022/03/20 05:18:12;;;;;;;24.90;8.88;;;;;;;;;;5071949;28;20670;-69
2022/03/20 05:20:43;;;;;;;31.63;9.60;;;;;;;;;;5071734;28;20209;-69
2022/03/20 05:23:12;;;;;;;25.90;8.13;;;;;;;;;;5071553;28;20211;-70
2022/03/20 05:25:40;;;;;;;23.52;7.68;;;;;;;;;;5071505;28;20207;-70
2022/03/20 05:28:07;;;;;;;23.33;7.45;;;;;;;;;;5071367;28;20214;-70
2022/03/20 05:30:35;;;;;;;22.55;7.75;;;;;;;;;;5071349;28;20550;-70
2022/03/20 05:33:02;;;;;;;22.50;7.88;;;;;;;;;;5070953;28;20235;-70
2022/03/20 05:35:31;;;;;;;29.05;8.10;;;;;;;;;;5071323;28;20654;-69
2022/03/20 05:38:01;;;;;;;25.73;8.18;;;;;;;;;;5071448;28;20683;-71
2022/03/20 05:40:30;;;;;;;23.77;8.05;;;;;;;;;;5071504;28;20204;-70
2022/03/20 05:42:57;;;;;;;26.30;7.68;;;;;;;;;;5071182;28;20287;-71
2022/03/20 05:45:25;;;;;;;25.65;8.93;;;;;;;;;;5071025;28;20219;-70
2022/03/20 05:47:52;;;;;;;21.90;7.35;;;;;;;;;;5071063;28;20213;-70
2022/03/20 05:50:19;;;;;;;24.20;8.25;;;;;;;;;;5070981;28;20219;-70
2022/03/20 05:52:47;;;;;;;24.85;8.52;;;;;;;;;;5071006;28;20209;-69
2022/03/20 05:55:16;;;;;;;25.58;7.68;;;;;;;;;;5070700;28;20299;-69
2022/03/20 06:00:30;;;;;;;26.27;8.75;;;;;;;;;;5070843;28;20215;-69
2022/03/20 06:02:57;;;;;;;23.95;6.53;;;;;;;;;;5071001;28;20296;-69
2022/03/20 06:05:25;;;;;;;26.38;7.70;;;;;;;;;;5071004;28;20242;-69
2022/03/20 06:07:53;;;;;;;29.27;10.10;;;;;;;;;;5070888;28;20207;-70
2022/03/20 06:10:22;;;;;;;24.73;8.65;;;;;;;;;;5071014;28;20265;-69
2022/03/20 06:12:50;;;;;;;24.98;7.25;;;;;;;;;;5070553;28;20589;-69
2022/03/20 06:15:18;;;;;;;22.55;8.90;;;;;;;;;;5070603;28;20733;-69
2022/03/20 06:17:46;;;;;;;28.38;8.40;;;;;;;;;;5070723;28;20211;-69
2022/03/20 06:20:14;;;;;;;26.35;8.23;;;;;;;;;;5070460;28;20689;-70
2022/03/20 06:22:42;;;;;;;25.13;8.00;;;;;;;;;;5070946;28;20210;-70
2022/03/20 06:25:11;;;;;;;28.90;9.60;;;;;;;;;;5069901;28;20516;-69
2022/03/20 06:27:49;;;;;;;23.80;9.33;;;;;;;;;;5070448;28;20458;-69
2022/03/20 06:30:18;;;;;;;26.30;8.40;;;;;;;;;;5070760;28;20443;-69
2022/03/20 06:32:46;;;;;;;31.53;10.47;;;;;;;;;;5070357;28;21148;-69
2022/03/20 06:35:14;;;;;;;32.87;11.93;;;;;;;;;;5070641;28;20464;-70
2022/03/20 06:37:42;;;;;;;24.90;10.87;;;;;;;;;;5070463;28;20907;-71
2022/03/20 06:40:10;;;;;;;30.63;11.50;;;;;;;;;;5070851;28;20528;-70
2022/03/20 06:42:39;;;;;;;28.00;10.60;;;;;;;;;;5070503;28;20861;-69
2022/03/20 06:45:10;;;;;;;28.67;9.13;;;;;;;;;;5070124;28;20486;-70
2022/03/20 06:47:38;;;;;;;27.37;11.23;;;;;;;;;;5070641;28;20526;-69
2022/03/20 06:50:06;;;;;;;70.80;28.87;;;;;;;;;;5070464;28;20455;-70
2022/03/20 06:52:33;;;;;;;38.10;17.10;;;;;;;;;;5070360;28;20446;-70
2022/03/20 06:55:02;;;;;;;27.90;10.83;;;;;;;;;;5070118;28;20489;-70
2022/03/20 06:57:30;;;;;;;27.90;10.47;;;;;;;;;;5070335;28;20455;-71
2022/03/20 06:59:58;;;;;;;27.87;10.80;;;;;;;;;;5063778;28;20445;-70
2022/03/20 07:02:27;;;;;;;22.50;9.07;;;;;;;;;;5070113;28;20456;-70
2022/03/20 07:04:56;;;;;;;24.57;9.73;;;;;;;;;;5070144;28;20451;-71
2022/03/20 07:07:24;;;;;;;23.50;9.17;;;;;;;;;;5070087;28;20442;-71
2022/03/20 07:09:52;;;;;;;25.43;10.00;;;;;;;;;;5070178;28;20461;-72
2022/03/20 07:12:20;;;;;;;24.87;9.80;;;;;;;;;;5070313;28;20484;-71
2022/03/20 07:14:47;;;;;;;26.40;10.50;;;;;;;;;;5070178;28;20495;-71
2022/03/20 07:17:16;;;;;;;21.83;9.37;;;;;;;;;;5069978;28;20449;-71
2022/03/20 07:19:45;;;;;;;26.17;9.50;;;;;;;;;;5070217;28;20821;-71
2022/03/20 07:22:15;;;;;;;25.40;9.97;;;;;;;;;;5070046;28;20521;-71
2022/03/20 07:24:43;;;;;;;25.80;8.90;;;;;;;;;;5069996;28;20968;-71
2022/03/20 07:29:55;;;;;;;26.43;10.80;;;;;;;;;;5070120;28;20450;-71
2022/03/20 07:32:23;;;;;;;27.20;8.83;;;;;;;;;;5070393;28;20515;-71
2022/03/20 07:34:52;;;;;;;22.20;8.47;;;;;;;;;;5070263;28;20481;-72
2022/03/20 07:37:20;;;;;;;23.60;8.30;;;;;;;;;;5072227;28;20508;-72
2022/03/20 07:39:48;;;;;;;26.13;9.93;;;;;;;;;;5073739;28;20446;-72
2022/03/20 07:42:17;;;;;;;23.87;8.97;;;;;;;;;;5073529;28;20450;-72
2022/03/20 07:44:44;;;;;;;25.30;9.60;;;;;;;;;;5073701;28;20461;-71
2022/03/20 07:47:18;;;;;;;26.67;10.07;;;;;;;;;;5073308;28;20452;-72
2022/03/20 07:49:45;;;;;;;23.80;9.90;;;;;;;;;;5073439;28;20809;-72
2022/03/20 07:52:14;;;;;;;23.80;9.90;;;;;;;;;;5073288;28;20454;-68
2022/03/20 07:54:45;;;;;;;26.03;8.93;;;;;;;;;;5073313;28;20497;-70
2022/03/20 07:57:13;;;;;;;25.40;9.70;;;;;;;;;;5073193;28;20447;-69
2022/03/20 07:59:41;;;;;;;23.93;8.90;;;;;;;;;;5073338;28;20435;-69
2022/03/20 08:02:08;;;;;;;24.97;7.87;;;;;;;;;;5073519;28;20791;-69
2022/03/20 08:04:36;;;;;;;28.20;9.80;;;;;;;;;;5073005;28;20553;-69
2022/03/20 08:07:03;;;;;;;27.40;10.07;;;;;;;;;;5072773;28;20903;-70
2022/03/20 08:09:32;;;;;;;27.80;9.73;;;;;;;;;;5072970;28;20451;-69
2022/03/20 08:12:01;;;;;;;25.27;9.80;;;;;;;;;;5072902;28;20846;-69
2022/03/20 08:14:28;;;;;;;25.23;8.23;;;;;;;;;;5072844;28;21037;-69
2022/03/20 08:16:56;;;;;;;30.17;10.43;;;;;;;;;;5072792;28;20447;-70
2022/03/20 08:19:24;;;;;;;25.20;9.30;;;;;;;;;;5066615;28;20837;-69
2022/03/20 08:21:52;;;;;;;27.57;10.77;;;;;;;;;;5072944;28;20441;-69
2022/03/20 08:24:20;;;;;;;29.60;10.40;;;;;;;;;;5072808;28;20981;-69
2022/03/20 08:26:48;;;;;;;23.97;10.00;;;;;;;;;;5072783;28;20459;-69
2022/03/20 08:29:16;;;;;;;22.57;9.87;;;;;;;;;;5072494;28;20973;-69
2022/03/20 08:31:45;;;;;;;23.10;8.83;;;;;;;;;;5072732;28;20859;-69
2022/03/20 08:34:14;;;;;;;30.13;10.40;;;;;;;;;;5073123;28;20883;-69
2022/03/20 08:36:42;;;;;;;22.33;7.70;;;;;;;;;;5072989;28;20435;-71
2022/03/20 08:39:10;;;;;;;23.17;8.07;;;;;;;;;;5072105;28;20955;-70
2022/03/20 08:41:37;;;;;;;20.43;6.67;;;;;;;;;;5072574;28;20462;-69
2022/03/20 08:44:08;;;;;;;22.40;5.77;;;;;;;;;;5072143;28;20458;-69
2022/03/20 08:46:37;;;;;;;22.75;7.07;;;;;;;;;;5072641;28;20459;-69
2022/03/20 08:49:07;;;;;;;25.13;7.55;;;;;;;;;;5071096;28;20299;-69
2022/03/20 08:51:35;;;;;;;20.08;6.50;;;;;;;;;;5072158;28;20208;-69
2022/03/20 08:54:02;;;;;;;20.10;5.50;;;;;;;;;;5072094;28;20715;-70
2022/03/20 08:56:30;;;;;;;24.23;4.82;;;;;;;;;;5072021;28;20213;-69
2022/03/20 08:58:58;;;;;;;22.83;6.88;;;;;;;;;;5072356;28;20305;-69
2022/03/20 09:01:27;;;;;;;21.92;6.10;;;;;;;;;;5072073;28;20201;-69
2022/03/20 09:03:55;;;;;;;19.70;5.15;;;;;;;;;;5072089;28;20205;-69
2022/03/20 09:06:23;;;;;;;19.58;5.30;;;;;;;;;;5065274;28;20621;-69
2022/03/20 09:08:51;;;;;;;17.10;4.15;;;;;;;;;;5072042;28;20201;-69
2022/03/20 09:11:18;;;;;;;19.17;4.32;;;;;;;;;;5071539;28;20325;-69
2022/03/20 09:13:46;;;;;;;21.67;5.68;;;;;;;;;;5071973;28;20212;-69
2022/03/20 09:19:03;;;;;;;15.82;3.95;;;;;;;;;;5071778;28;20215;-69
2022/03/20 09:21:31;;;;;;;18.08;4.45;;;;;;;;;;5071549;28;20315;-70
2022/03/20 09:23:59;;;;;;;19.38;5.40;;;;;;;;;;5071666;28;20224;-69
2022/03/20 09:26:26;;;;;;;18.35;5.13;;;;;;;;;;5071481;28;20212;-70
2022/03/20 09:28:54;;;;;;;17.15;3.78;;;;;;;;;;5071696;28;20205;-69
2022/03/20 09:31:21;;;;;;;17.35;4.07;;;;;;;;;;5071228;28;20274;-71
2022/03/20 09:33:49;;;;;;;17.85;4.55;;;;;;;;;;5071394;28;20314;-69
2022/03/20 09:36:19;;;;;;;29.92;6.80;;;;;;;;;;5064943;28;20218;-70
2022/03/20 09:38:46;;;;;;;19.98;4.65;;;;;;;;;;5071625;28;20211;-69
2022/03/20 09:41:14;;;;;;;22.63;5.40;;;;;;;;;;5071035;28;20666;-69
2022/03/20 09:43:43;;;;;;;21.48;4.68;;;;;;;;;;5071447;28;20211;-68
2022/03/20 09:46:11;;;;;;;21.67;5.43;;;;;;;;;;5071099;28;20215;-69
2022/03/20 09:48:39;;;;;;;21.88;5.50;;;;;;;;;;5071025;28;20212;-70
2022/03/20 09:51:07;;;;;;;18.45;5.25;;;;;;;;;;5071127;28;20291;-69
2022/03/20 09:53:36;;;;;;;24.63;5.22;;;;;;;;;;5071302;28;20215;-70
2022/03/20 09:56:06;;;;;;;28.05;4.82;;;;;;;;;;5071080;28;20259;-69
2022/03/20 09:58:33;;;;;;;19.58;5.45;;;;;;;;;;5071034;28;20295;-70
2022/03/20 10:01:01;;;;;;;18.50;5.43;;;;;;;;;;5070494;28;20209;-70
2022/03/20 10:03:28;;;;;;;21.58;4.55;;;;;;;;;;5071481;28;20225;-70
2022/03/20 10:06:15;;;;;;;18.02;4.97;;;;;;;;;;5070927;28;20358;-69
2022/03/20 10:09:05;;;;;;;22.33;6.18;;;;;;;;;;5070969;28;20231;-71
2022/03/20 10:11:33;;;;;;;19.42;6.82;;;;;;;;;;5070997;28;20682;-70
2022/03/20 10:14:07;;;;;;;18.02;5.00;;;;;;;;;;5071021;28;20201;-70
2022/03/20 10:16:35;;;;;;;19.27;4.18;;;;;;;;;;5070796;28;20208;-69
2022/03/20 10:19:02;;;;;;;19.60;5.22;;;;;;;;;;5070564;28;20603;-70
2022/03/20 10:21:53;;;;;;;19.80;5.45;;;;;;;;;;5070785;28;20216;-69
2022/03/20 10:24:24;;;;;;;21.38;6.38;;;;;;;;;;5048999;28;20212;-69
2022/03/20 10:26:53;;;;;;;19.75;5.50;;;;;;;;;;5070718;28;20573;-69
2022/03/20 10:29:21;;;;;;;16.63;4.15;;;;;;;;;;5070595;28;20207;-70
2022/03/20 10:31:51;;;;;;;20.95;4.50;;;;;;;;;;5070663;28;20208;-70
2022/03/20 10:34:19;;;;;;;17.90;4.72;;;;;;;;;;5070563;28;20211;-69
2022/03/20 10:36:47;;;;;;;16.55;3.65;;;;;;;;;;5070492;28;20319;-70
2022/03/20 10:39:16;;;;;;;20.30;3.83;;;;;;;;;;5070636;28;20296;-70
2022/03/20 10:41:45;;;;;;;20.23;4.88;;;;;;;;;;5070694;28;20716;-70
2022/03/20 10:44:14;;;;;;;15.02;3.25;;;;;;;;;;5070449;28;20295;-70
2022/03/20 10:46:42;;;;;;;17.73;3.75;;;;;;;;;;5070316;28;20208;-69
2022/03/20 10:49:11;;;;;;;21.15;5.30;;;;;;;;;;5070119;28;20696;-70
2022/03/20 10:51:40;;;;;;;16.95;3.60;;;;;;;;;;5070669;28;20299;-70
2022/03/20 10:54:09;;;;;;;18.45;3.90;;;;;;;;;;5070786;28;20224;-71
2022/03/20 10:56:36;;;;;;;19.65;4.20;;;;;;;;;;5070465;28;20209;-70
2022/03/20 10:59:16;;;;;;;17.80;4.30;;;;;;;;;;5070092;28;20211;-70
2022/03/20 11:01:45;;;;;;;16.50;3.47;;;;;;;;;;5063915;28;20208;-70
2022/03/20 11:04:13;;;;;;;20.85;3.97;;;;;;;;;;5070254;28;20657;-71
2022/03/20 11:06:42;;;;;;;17.48;3.67;;;;;;;;;;5070339;28;20320;-69
2022/03/20 11:09:09;;;;;;;16.13;3.60;;;;;;;;;;5070162;28;20269;-70
2022/03/20 11:11:39;;;;;;;15.65;3.50;;;;;;;;;;5071507;28;20263;-70
2022/03/20 11:14:08;;;;;;;22.52;4.50;;;;;;;;;;5073981;28;20274;-70
2022/03/20 11:16:38;;;;;;;17.92;4.38;;;;;;;;;;5073977;28;20723;-70
2022/03/20 11:19:06;;;;;;;16.17;3.53;;;;;;;;;;5073856;28;20205;-70
2022/03/20 11:21:36;;;;;;;18.55;4.80;;;;;;;;;;5074098;28;20204;-70
2022/03/20 11:24:04;;;;;;;19.63;4.40;;;;;;;;;;5074102;28;20213;-70
2022/03/20 11:26:33;;;;;;;19.50;4.10;;;;;;;;;;5073856;28;20255;-70
2022/03/20 11:29:03;;;;;;;16.42;4.25;;;;;;;;;;5067015;28;20208;-70
2022/03/20 11:31:34;;;;;;;17.55;4.82;;;;;;;;;;5074078;28;20290;-70
2022/03/20 11:34:04;;;;;;;17.10;4.40;;;;;;;;;;5073689;28;20674;-71
2022/03/20 11:36:31;;;;;;;17.20;3.70;;;;;;;;;;5073622;28;20228;-70
2022/03/20 11:39:15;;;;;;;15.07;3.30;;;;;;;;;;5073429;28;20695;-73
2022/03/20 11:41:42;;;;;;;20.77;4.85;;;;;;;;;;5072062;28;20257;-71
2022/03/20 11:44:15;;;;;;;15.80;3.85;;;;;;;;;;5073455;28;20600;-70
2022/03/20 11:46:45;;;;;;;19.48;4.28;;;;;;;;;;5073472;28;20262;-70
2022/03/20 11:49:24;;;;;;;17.77;4.50;;;;;;;;;;5073350;28;20212;-71
2022/03/20 11:51:55;;;;;;;19.08;5.00;;;;;;;;;;5073641;28;20207;-70
2022/03/20 11:54:30;;;;;;;20.50;4.40;;;;;;;;;;5073591;28;20204;-70
2022/03/20 11:56:58;;;;;;;18.30;4.90;;;;;;;;;;5073321;28;20669;-70
2022/03/20 11:59:44;;;;;;;15.88;3.97;;;;;;;;;;5073209;28;20251;-70
2022/03/20 12:02:14;;;;;;;18.25;4.32;;;;;;;;;;5073313;28;20606;-69
2022/03/20 12:04:47;;;;;;;18.35;3.88;;;;;;;;;;5072942;28;20203;-68
2022/03/20 12:07:16;;;;;;;18.88;3.72;;;;;;;;;;5072972;28;20200;-70
2022/03/20 12:09:59;;;;;;;16.30;3.85;;;;;;;;;;5073291;28;20212;-70
2022/03/20 12:12:44;;;;;;;22.08;4.75;;;;;;;;;;5073056;28;20232;-69
2022/03/20 12:15:12;;;;;;;18.27;4.03;;;;;;;;;;5066638;28;20228;-70
2022/03/20 12:18:00;;;;;;;23.95;5.60;;;;;;;;;;5073035;28;20240;-70
2022/03/20 12:20:46;;;;;;;14.18;2.35;;;;;;;;;;5067684;28;20216;-70
2022/03/20 12:23:32;;;;;;;17.52;4.03;;;;;;;;;;5071170;28;20204;-70
2022/03/20 12:26:21;;;;;;;18.35;6.00;;;;;;;;;;5072922;28;20205;-70
2022/03/20 12:28:48;;;;;;;16.13;3.80;;;;;;;;;;5072697;28;20610;-70
2022/03/20 12:31:25;;;;;;;22.00;4.85;;;;;;;;;;5072399;28;20201;-70
2022/03/20 12:34:08;;;;;;;17.38;3.35;;;;;;;;;;5072906;28;20211;-71
2022/03/20 12:36:36;;;;;;;16.88;3.65;;;;;;;;;;5072450;28;20235;-69
2022/03/20 12:39:03;;;;;;;17.45;3.92;;;;;;;;;;5072559;28;20219;-70
2022/03/20 12:41:32;;;;;;;18.85;4.75;;;;;;;;;;5072452;28;20211;-70
2022/03/20 12:44:00;;;;;;;16.65;4.20;;;;;;;;;;5072644;28;20208;-71
2022/03/20 12:46:29;;;;;;;27.70;4.75;;;;;;;;;;5072572;28;20217;-70
2022/03/20 12:48:58;;;;;;;21.10;4.47;;;;;;;;;;5072495;28;20209;-69
2022/03/20 12:51:33;;;;;;;15.75;3.28;;;;;;;;;;5072203;28;20701;-69
2022/03/20 12:54:05;;;;;;;18.90;4.82;;;;;;;;;;5072249;28;20212;-70
2022/03/20 12:56:34;;;;;;;18.88;4.47;;;;;;;;;;5072009;28;20256;-71
2022/03/20 12:59:01;;;;;;;20.05;6.32;;;;;;;;;;5071910;28;20221;-70
2022/03/20 13:01:37;;;;;;;20.52;5.20;;;;;;;;;;5072352;28;20303;-70
2022/03/20 13:04:15;;;;;;;16.58;4.05;;;;;;;;;;5071968;28;20216;-70
2022/03/20 13:06:43;;;;;;;19.98;4.60;;;;;;;;;;5072311;28;20665;-71
2022/03/20 13:09:14;;;;;;;17.27;4.20;;;;;;;;;;5071644;28;20201;-70
2022/03/20 13:11:51;;;;;;;18.58;5.03;;;;;;;;;;5071785;28;20232;-70
2022/03/20 13:14:19;;;;;;;17.13;4.15;;;;;;;;;;5071978;28;20299;-70
2022/03/20 13:16:51;;;;;;;19.15;3.40;;;;;;;;;;5071755;28;20236;-70
2022/03/20 13:19:31;;;;;;;15.90;4.15;;;;;;;;;;5072221;28;20403;-70
2022/03/20 13:21:59;;;;;;;21.27;5.32;;;;;;;;;;5071700;28;20672;-70
2022/03/20 13:24:33;;;;;;;23.13;5.45;;;;;;;;;;5071833;28;20204;-70
2022/03/20 13:27:03;;;;;;;18.48;3.63;;;;;;;;;;5071508;28;20295;-70
2022/03/20 13:29:31;;;;;;;15.88;3.63;;;;;;;;;;5065009;28;20204;-71
2022/03/20 13:32:08;;;;;;;19.73;5.22;;;;;;;;;;5071667;28;20223;-71
2022/03/20 13:34:41;;;;;;;19.52;5.47;;;;;;;;;;5071150;28;20209;-70
2022/03/20 13:37:11;;;;;;;19.38;5.40;;;;;;;;;;5071251;28;20236;-70
2022/03/20 13:39:39;;;;;;;19.95;4.65;;;;;;;;;;5071474;28;20205;-70
2022/03/20 13:42:18;;;;;;;18.17;4.45;;;;;;;;;;5071263;28;20205;-70
2022/03/20 13:44:47;;;;;;;22.35;5.88;;;;;;;;;;5071484;28;20207;-70
2022/03/20 13:47:14;;;;;;;19.88;5.70;;;;;;;;;;5071330;28;20291;-70
2022/03/20 13:49:43;;;;;;;21.48;5.80;;;;;;;;;;5071372;28;20207;-70
2022/03/20 13:52:11;;;;;;;16.30;4.28;;;;;;;;;;5071059;28;20212;-70
2022/03/20 13:54:40;;;;;;;15.30;3.35;;;;;;;;;;5070874;28;20208;-71
2022/03/20 13:57:11;;;;;;;21.40;4.97;;;;;;;;;;5070924;28;20349;-70
2022/03/20 13:59:49;;;;;;;20.42;5.63;;;;;;;;;;5071184;28;20235;-70
2022/03/20 14:02:17;;;;;;;20.25;4.05;;;;;;;;;;5071070;28;20229;-70
2022/03/20 14:04:47;;;;;;;22.77;6.20;;;;;;;;;;5070819;28;20200;-71
2022/03/20 14:07:21;;;;;;;21.10;5.65;;;;;;;;;;5070905;28;20295;-71
2022/03/20 14:09:49;;;;;;;16.80;3.45;;;;;;;;;;5070908;28;20219;-70
2022/03/20 14:12:29;;;;;;;17.70;4.10;;;;;;;;;;5070681;28;20225;-71
2022/03/20 14:14:59;;;;;;;24.10;5.53;;;;;;;;;;5070830;28;20208;-70
2022/03/20 14:17:43;;;;;;;19.10;4.90;;;;;;;;;;5070726;28;20235;-70
2022/03/20 14:20:11;;;;;;;22.98;6.10;;;;;;;;;;5070672;28;20204;-70
2022/03/20 14:22:45;;;;;;;18.08;4.38;;;;;;;;;;5070780;28;20208;-70
2022/03/20 14:25:30;;;;;;;26.98;7.50;;;;;;;;;;5070435;28;20213;-71
2022/03/20 14:27:59;;;;;;;19.50;5.70;;;;;;;;;;5070621;28;20212;-70
2022/03/20 14:41:32;;;;;;;18.73;4.80;;;;;;;;;;5070465;28;20604;-71
2022/03/20 14:44:14;;;;;;;24.65;6.15;;;;;;;;;;5070259;28;20634;-71
2022/03/20 14:46:43;;;;;;;18.02;4.90;;;;;;;;;;5069618;28;20673;-70
2022/03/20 14:49:11;;;;;;;18.33;6.10;;;;;;;;;;5070223;28;20208;-70
2022/03/20 14:51:42;;;;;;;25.35;6.15;;;;;;;;;;5070461;28;20231;-70
2022/03/20 14:54:09;;;;;;;16.15;4.32;;;;;;;;;;5070726;28;20212;-71
2022/03/20 14:56:38;;;;;;;21.13;6.35;;;;;;;;;;5063542;28;20771;-70
2022/03/20 14:59:07;;;;;;;20.65;6.05;;;;;;;;;;5069986;28;20700;-70
2022/03/20 15:01:39;;;;;;;25.15;6.88;;;;;;;;;;5070560;28;20231;-70
2022/03/20 15:04:08;;;;;;;29.55;7.57;;;;;;;;;;5070426;28;20288;-70
2022/03/20 15:06:35;;;;;;;23.30;5.68;;;;;;;;;;5070034;28;20240;-70
2022/03/20 15:11:48;;;;;;;24.42;7.13;;;;;;;;;;5070315;28;20284;-71
2022/03/20 15:14:16;;;;;;;21.50;6.72;;;;;;;;;;5070138;28;20688;-70
2022/03/20 15:16:43;;;;;;;22.35;5.65;;;;;;;;;;5069942;28;20742;-70
2022/03/20 15:19:13;;;;;;;18.92;3.95;;;;;;;;;;5070041;28;20211;-70
2022/03/20 15:21:40;;;;;;;28.15;6.82;;;;;;;;;;5070142;28;20806;-70
2022/03/20 15:24:09;;;;;;;20.65;6.05;;;;;;;;;;5070091;28;20258;-70
2022/03/20 15:26:36;;;;;;;30.63;7.60;;;;;;;;;;5070247;28;20212;-70
2022/03/20 15:29:05;;;;;;;26.00;8.02;;;;;;;;;;5069950;28;20216;-70